sensor_id;sensor_type;location;lat;lon;timestamp;pressure;altitude;pressure_sealevel;temperature;humidity
47280;BME280;34064;44.942;0.008;2022-12-16T00:01:49;97427.50;;;9.12;66.43
47280;BME280;34064;44.942;0.008;2022-12-16T00:04:15;97421.38;;;9.11;66.53
47280;BME280;34064;44.942;0.008;2022-12-16T00:06:42;97435.59;;;9.10;66.73
47280;BME280;34064;44.942;0.008;2022-12-16T00:09:09;97430.28;;;9.10;66.38
47280;BME280;34064;44.942;0.008;2022-12-16T00:11:35;97429.75;;;9.07;66.76
47280;BME280;34064;44.942;0.008;2022-12-16T00:14:01;97433.91;;;9.09;66.59
47280;BME280;34064;44.942;0.008;2022-12-16T00:16:28;97440.06;;;9.10;66.50
47280;BME280;34064;44.942;0.008;2022-12-16T00:18:55;97436.44;;;9.11;66.54
47280;BME280;34064;44.942;0.008;2022-12-16T00:21:21;97451.34;;;9.12;66.32
47280;BME280;34064;44.942;0.008;2022-12-16T00:23:56;97451.22;;;9.03;66.78
47280;BME280;34064;44.942;0.008;2022-12-16T00:26:23;97459.03;;;9.05;66.56
47280;BME280;34064;44.942;0.008;2022-12-16T00:28:50;97465.44;;;9.02;66.54
47280;BME280;34064;44.942;0.008;2022-12-16T00:31:16;97463.47;;;9.04;66.50
47280;BME280;34064;44.942;0.008;2022-12-16T00:33:42;97467.09;;;9.03;66.55
47280;BME280;34064;44.942;0.008;2022-12-16T00:36:09;97468.94;;;9.03;66.61
47280;BME280;34064;44.942;0.008;2022-12-16T00:38:35;97469.09;;;9.01;66.52
47280;BME280;34064;44.942;0.008;2022-12-16T00:41:02;97479.69;;;9.01;66.49
47280;BME280;34064;44.942;0.008;2022-12-16T00:43:29;97493.91;;;9.00;66.60
47280;BME280;34064;44.942;0.008;2022-12-16T00:45:55;97494.16;;;8.97;66.36
47280;BME280;34064;44.942;0.008;2022-12-16T00:48:22;97498.06;;;8.93;66.60
47280;BME280;34064;44.942;0.008;2022-12-16T00:50:50;97499.72;;;8.94;66.69
47280;BME280;34064;44.942;0.008;2022-12-16T00:53:17;97503.09;;;8.96;66.68
47280;BME280;34064;44.942;0.008;2022-12-16T00:55:44;97506.00;;;8.93;66.72
47280;BME280;34064;44.942;0.008;2022-12-16T00:58:11;97504.91;;;8.96;66.71
47280;BME280;34064;44.942;0.008;2022-12-16T01:00:38;97500.44;;;8.96;66.61
47280;BME280;34064;44.942;0.008;2022-12-16T01:03:04;97497.53;;;8.99;66.82
47280;BME280;34064;44.942;0.008;2022-12-16T01:05:31;97499.31;;;8.99;66.79
47280;BME280;34064;44.942;0.008;2022-12-16T01:07:57;97501.13;;;8.98;66.74
47280;BME280;34064;44.942;0.008;2022-12-16T01:10:25;97504.63;;;8.99;66.65
47280;BME280;34064;44.942;0.008;2022-12-16T01:12:51;97508.13;;;8.99;66.63
47280;BME280;34064;44.942;0.008;2022-12-16T01:15:18;97517.03;;;8.98;66.73
47280;BME280;34064;44.942;0.008;2022-12-16T01:17:45;97523.03;;;9.00;66.40
47280;BME280;34064;44.942;0.008;2022-12-16T01:20:12;97528.88;;;8.94;66.62
47280;BME280;34064;44.942;0.008;2022-12-16T01:22:39;97527.34;;;8.92;66.73
47280;BME280;34064;44.942;0.008;2022-12-16T01:25:06;97535.13;;;8.93;66.95
47280;BME280;34064;44.942;0.008;2022-12-16T01:27:33;97534.88;;;8.96;66.75
47280;BME280;34064;44.942;0.008;2022-12-16T01:29:59;97536.69;;;8.96;66.71
47280;BME280;34064;44.942;0.008;2022-12-16T01:32:26;97538.50;;;8.95;66.75
47280;BME280;34064;44.942;0.008;2022-12-16T01:34:53;97537.53;;;8.96;66.60
47280;BME280;34064;44.942;0.008;2022-12-16T01:37:20;97545.47;;;8.96;66.63
47280;BME280;34064;44.942;0.008;2022-12-16T01:39:47;97540.44;;;8.93;66.67
47280;BME280;34064;44.942;0.008;2022-12-16T01:42:16;97544.75;;;8.94;66.45
47280;BME280;34064;44.942;0.008;2022-12-16T01:44:45;97549.09;;;8.95;66.54
47280;BME280;34064;44.942;0.008;2022-12-16T01:47:15;97552.69;;;8.94;66.38
47280;BME280;34064;44.942;0.008;2022-12-16T01:49:48;97547.25;;;8.86;66.45
47280;BME280;34064;44.942;0.008;2022-12-16T01:52:20;97554.78;;;8.90;66.07
47280;BME280;34064;44.942;0.008;2022-12-16T01:54:59;97547.41;;;8.84;66.19
47280;BME280;34064;44.942;0.008;2022-12-16T01:57:41;97554.78;;;8.81;66.14
47280;BME280;34064;44.942;0.008;2022-12-16T02:00:11;97554.09;;;8.79;66.37
47280;BME280;34064;44.942;0.008;2022-12-16T02:02:38;97557.44;;;8.81;66.51
47280;BME280;34064;44.942;0.008;2022-12-16T02:05:05;97559.13;;;8.82;66.35
47280;BME280;34064;44.942;0.008;2022-12-16T02:08:20;97564.69;;;8.79;66.51
47280;BME280;34064;44.942;0.008;2022-12-16T02:11:23;97562.19;;;8.77;66.34
47280;BME280;34064;44.942;0.008;2022-12-16T02:17:39;97559.78;;;8.74;66.41
47280;BME280;34064;44.942;0.008;2022-12-16T02:28:06;97577.91;;;8.69;66.41
47280;BME280;34064;44.942;0.008;2022-12-16T02:33:45;97583.22;;;8.69;66.06
47280;BME280;34064;44.942;0.008;2022-12-16T02:39:21;97592.78;;;8.60;66.27
47280;BME280;34064;44.942;0.008;2022-12-16T02:41:59;97588.47;;;8.59;66.44
47280;BME280;34064;44.942;0.008;2022-12-16T02:47:14;97592.78;;;8.60;66.33
47280;BME280;34064;44.942;0.008;2022-12-16T02:49:45;97596.25;;;8.61;66.03
47280;BME280;34064;44.942;0.008;2022-12-16T02:52:13;97602.56;;;8.60;65.97
47280;BME280;34064;44.942;0.008;2022-12-16T02:54:40;97587.34;;;8.62;66.29
47280;BME280;34064;44.942;0.008;2022-12-16T02:57:29;97594.31;;;8.53;66.41
47280;BME280;34064;44.942;0.008;2022-12-16T03:00:05;97595.97;;;8.54;66.53
47280;BME280;34064;44.942;0.008;2022-12-16T03:02:46;97595.28;;;8.62;66.04
47280;BME280;34064;44.942;0.008;2022-12-16T03:05:20;97601.69;;;8.59;66.13
47280;BME280;34064;44.942;0.008;2022-12-16T03:07:51;97605.56;;;8.55;66.25
47280;BME280;34064;44.942;0.008;2022-12-16T03:10:25;97618.94;;;8.53;66.16
47280;BME280;34064;44.942;0.008;2022-12-16T03:12:54;97617.16;;;8.54;66.11
47280;BME280;34064;44.942;0.008;2022-12-16T03:15:24;97618.13;;;8.53;66.28
47280;BME280;34064;44.942;0.008;2022-12-16T03:17:52;97616.69;;;8.49;66.18
47280;BME280;34064;44.942;0.008;2022-12-16T03:20:29;97614.75;;;8.51;66.06
47280;BME280;34064;44.942;0.008;2022-12-16T03:23:01;97619.34;;;8.49;65.92
47280;BME280;34064;44.942;0.008;2022-12-16T03:25:29;97621.16;;;8.48;66.07
47280;BME280;34064;44.942;0.008;2022-12-16T03:28:13;97627.44;;;8.47;65.80
47280;BME280;34064;44.942;0.008;2022-12-16T03:30:48;97619.00;;;8.42;65.98
47280;BME280;34064;44.942;0.008;2022-12-16T03:33:25;97625.16;;;8.42;66.19
47280;BME280;34064;44.942;0.008;2022-12-16T03:35:58;97617.22;;;8.42;66.26
47280;BME280;34064;44.942;0.008;2022-12-16T03:38:28;97619.84;;;8.42;66.17
47280;BME280;34064;44.942;0.008;2022-12-16T03:40:56;97620.13;;;8.39;66.25
47280;BME280;34064;44.942;0.008;2022-12-16T03:43:24;97618.31;;;8.40;66.22
47280;BME280;34064;44.942;0.008;2022-12-16T03:45:53;97618.88;;;8.43;65.87
47280;BME280;34064;44.942;0.008;2022-12-16T03:48:23;97624.44;;;8.40;66.18
47280;BME280;34064;44.942;0.008;2022-12-16T03:50:50;97622.50;;;8.42;65.85
47280;BME280;34064;44.942;0.008;2022-12-16T03:53:16;97617.22;;;8.42;65.71
47280;BME280;34064;44.942;0.008;2022-12-16T03:55:43;97626.13;;;8.41;65.49
47280;BME280;34064;44.942;0.008;2022-12-16T03:58:10;97635.41;;;8.36;65.75
47280;BME280;34064;44.942;0.008;2022-12-16T04:00:36;97635.28;;;8.37;65.73
47280;BME280;34064;44.942;0.008;2022-12-16T04:03:02;97648.50;;;8.37;65.22
47280;BME280;34064;44.942;0.008;2022-12-16T04:05:29;97647.81;;;8.35;65.46
47280;BME280;34064;44.942;0.008;2022-12-16T04:07:55;97654.47;;;8.30;65.69
47280;BME280;34064;44.942;0.008;2022-12-16T04:10:21;97650.59;;;8.34;65.55
47280;BME280;34064;44.942;0.008;2022-12-16T04:13:09;97644.72;;;8.30;65.54
47280;BME280;34064;44.942;0.008;2022-12-16T04:15:54;97651.13;;;8.27;65.55
47280;BME280;34064;44.942;0.008;2022-12-16T04:18:40;97657.25;;;8.28;65.59
47280;BME280;34064;44.942;0.008;2022-12-16T04:21:25;97651.94;;;8.28;65.35
47280;BME280;34064;44.942;0.008;2022-12-16T04:24:16;97653.06;;;8.25;65.32
47280;BME280;34064;44.942;0.008;2022-12-16T04:26:47;97663.06;;;8.22;65.27
47280;BME280;34064;44.942;0.008;2022-12-16T04:29:32;97663.06;;;8.22;65.55
47280;BME280;34064;44.942;0.008;2022-12-16T04:31:59;97669.47;;;8.19;65.67
47280;BME280;34064;44.942;0.008;2022-12-16T04:34:26;97671.97;;;8.21;65.63
47280;BME280;34064;44.942;0.008;2022-12-16T04:36:58;97675.56;;;8.20;65.57
47280;BME280;34064;44.942;0.008;2022-12-16T04:39:44;97672.22;;;8.18;65.37
47280;BME280;34064;44.942;0.008;2022-12-16T04:42:29;97672.34;;;8.16;65.51
47280;BME280;34064;44.942;0.008;2022-12-16T04:45:14;97679.47;;;8.16;65.41
47280;BME280;34064;44.942;0.008;2022-12-16T04:48:01;97677.91;;;8.13;65.11
47280;BME280;34064;44.942;0.008;2022-12-16T04:50:46;97686.94;;;8.10;65.13
47280;BME280;34064;44.942;0.008;2022-12-16T04:53:31;97698.47;;;8.09;65.15
47280;BME280;34064;44.942;0.008;2022-12-16T04:56:15;97693.19;;;8.09;65.20
47280;BME280;34064;44.942;0.008;2022-12-16T04:59:00;97694.16;;;8.08;65.19
47280;BME280;34064;44.942;0.008;2022-12-16T05:01:45;97690.53;;;8.09;64.99
47280;BME280;34064;44.942;0.008;2022-12-16T05:04:29;97689.97;;;8.06;64.94
47280;BME280;34064;44.942;0.008;2022-12-16T05:07:14;97699.97;;;8.02;64.63
47280;BME280;34064;44.942;0.008;2022-12-16T05:09:59;97694.94;;;7.99;64.90
47280;BME280;34064;44.942;0.008;2022-12-16T05:12:43;97705.66;;;7.97;64.97
47280;BME280;34064;44.942;0.008;2022-12-16T05:15:28;97709.38;;;7.95;65.01
47280;BME280;34064;44.942;0.008;2022-12-16T05:18:14;97713.00;;;7.94;64.50
47280;BME280;34064;44.942;0.008;2022-12-16T05:21:01;97721.19;;;7.91;64.45
47280;BME280;34064;44.942;0.008;2022-12-16T05:23:47;97726.84;;;7.86;64.64
47280;BME280;34064;44.942;0.008;2022-12-16T05:26:32;97722.41;;;7.87;64.87
47280;BME280;34064;44.942;0.008;2022-12-16T05:29:17;97735.44;;;7.78;64.72
47280;BME280;34064;44.942;0.008;2022-12-16T05:32:02;97733.38;;;7.82;64.71
47280;BME280;34064;44.942;0.008;2022-12-16T05:34:47;97740.59;;;7.80;64.50
47280;BME280;34064;44.942;0.008;2022-12-16T05:37:32;97744.56;;;7.74;64.50
47280;BME280;34064;44.942;0.008;2022-12-16T05:40:16;97756.25;;;7.72;64.80
47280;BME280;34064;44.942;0.008;2022-12-16T05:43:01;97754.19;;;7.75;65.00
47280;BME280;34064;44.942;0.008;2022-12-16T05:45:45;97762.13;;;7.75;64.58
47280;BME280;34064;44.942;0.008;2022-12-16T05:48:30;97763.66;;;7.78;64.50
47280;BME280;34064;44.942;0.008;2022-12-16T05:51:15;97755.13;;;7.74;64.37
47280;BME280;34064;44.942;0.008;2022-12-16T05:53:59;97758.50;;;7.76;64.57
47280;BME280;34064;44.942;0.008;2022-12-16T05:56:44;97767.53;;;7.74;64.17
47280;BME280;34064;44.942;0.008;2022-12-16T05:59:29;97775.69;;;7.71;64.27
47280;BME280;34064;44.942;0.008;2022-12-16T06:02:13;97785.78;;;7.65;64.36
47280;BME280;34064;44.942;0.008;2022-12-16T06:05:09;97786.50;;;7.68;64.48
47280;BME280;34064;44.942;0.008;2022-12-16T06:07:53;97789.28;;;7.66;64.46
47280;BME280;34064;44.942;0.008;2022-12-16T06:10:38;97791.09;;;7.65;64.33
47280;BME280;34064;44.942;0.008;2022-12-16T06:13:23;97798.41;;;7.62;64.58
47280;BME280;34064;44.942;0.008;2022-12-16T06:16:08;97805.66;;;7.60;64.54
47280;BME280;34064;44.942;0.008;2022-12-16T06:18:53;97809.84;;;7.62;63.99
47280;BME280;34064;44.942;0.008;2022-12-16T06:21:38;97818.63;;;7.52;64.74
47280;BME280;34064;44.942;0.008;2022-12-16T06:24:22;97823.91;;;7.52;64.31
47280;BME280;34064;44.942;0.008;2022-12-16T06:27:07;97823.91;;;7.52;64.39
47280;BME280;34064;44.942;0.008;2022-12-16T06:29:52;97831.00;;;7.51;64.63
47280;BME280;34064;44.942;0.008;2022-12-16T06:32:37;97825.84;;;7.49;64.44
47280;BME280;34064;44.942;0.008;2022-12-16T06:35:21;97831.38;;;7.46;64.13
47280;BME280;34064;44.942;0.008;2022-12-16T06:38:06;97828.88;;;7.45;64.28
47280;BME280;34064;44.942;0.008;2022-12-16T06:40:51;97831.13;;;7.49;64.20
47280;BME280;34064;44.942;0.008;2022-12-16T06:43:36;97839.53;;;7.43;64.01
47280;BME280;34064;44.942;0.008;2022-12-16T06:46:21;97844.22;;;7.40;64.08
47280;BME280;34064;44.942;0.008;2022-12-16T06:49:05;97847.00;;;7.38;63.63
47280;BME280;34064;44.942;0.008;2022-12-16T06:51:50;97856.47;;;7.29;64.03
47280;BME280;34064;44.942;0.008;2022-12-16T06:54:35;97866.44;;;7.26;63.51
47280;BME280;34064;44.942;0.008;2022-12-16T06:57:19;97869.06;;;7.14;63.88
47280;BME280;34064;44.942;0.008;2022-12-16T07:00:04;97869.56;;;7.08;63.82
47280;BME280;34064;44.942;0.008;2022-12-16T07:02:49;97871.25;;;7.09;63.15
47280;BME280;34064;44.942;0.008;2022-12-16T07:05:34;97875.31;;;7.02;63.25
47280;BME280;34064;44.942;0.008;2022-12-16T07:08:18;97877.94;;;6.91;63.73
47280;BME280;34064;44.942;0.008;2022-12-16T07:11:03;97886.09;;;6.87;63.83
47280;BME280;34064;44.942;0.008;2022-12-16T07:13:48;97886.09;;;6.87;63.76
47280;BME280;34064;44.942;0.008;2022-12-16T07:16:32;97899.53;;;6.84;63.79
47280;BME280;34064;44.942;0.008;2022-12-16T07:19:17;97901.19;;;6.85;63.68
47280;BME280;34064;44.942;0.008;2022-12-16T07:22:01;97907.91;;;6.78;63.71
47280;BME280;34064;44.942;0.008;2022-12-16T07:24:46;97921.09;;;6.78;63.37
47280;BME280;34064;44.942;0.008;2022-12-16T07:27:31;97921.34;;;6.75;63.29
47280;BME280;34064;44.942;0.008;2022-12-16T07:30:15;97931.19;;;6.73;63.15
47280;BME280;34064;44.942;0.008;2022-12-16T07:33:00;97944.59;;;6.70;63.42
47280;BME280;34064;44.942;0.008;2022-12-16T07:35:45;97949.13;;;6.68;63.23
47280;BME280;34064;44.942;0.008;2022-12-16T07:38:30;97952.03;;;6.65;63.42
47280;BME280;34064;44.942;0.008;2022-12-16T07:41:14;97962.78;;;6.62;63.34
47280;BME280;34064;44.942;0.008;2022-12-16T07:43:59;97957.31;;;6.65;63.20
47280;BME280;34064;44.942;0.008;2022-12-16T07:46:43;97960.16;;;6.62;63.42
47280;BME280;34064;44.942;0.008;2022-12-16T07:49:28;97970.84;;;6.60;63.15
47280;BME280;34064;44.942;0.008;2022-12-16T07:52:12;97972.53;;;6.61;63.33
47280;BME280;34064;44.942;0.008;2022-12-16T07:54:57;97973.13;;;6.65;63.38
47280;BME280;34064;44.942;0.008;2022-12-16T07:57:47;97988.97;;;6.65;63.12
47280;BME280;34064;44.942;0.008;2022-12-16T08:00:32;97987.91;;;6.67;62.97
47280;BME280;34064;44.942;0.008;2022-12-16T08:03:16;97992.56;;;6.64;62.67
47280;BME280;34064;44.942;0.008;2022-12-16T08:06:01;97998.06;;;6.61;62.95
47280;BME280;34064;44.942;0.008;2022-12-16T08:08:50;97999.75;;;6.62;62.83
47280;BME280;34064;44.942;0.008;2022-12-16T08:11:35;98011.25;;;6.61;63.03
47280;BME280;34064;44.942;0.008;2022-12-16T08:14:20;98006.91;;;6.60;62.29
47280;BME280;34064;44.942;0.008;2022-12-16T08:17:09;98006.91;;;6.60;62.70
47280;BME280;34064;44.942;0.008;2022-12-16T08:19:54;98008.59;;;6.61;62.43
47280;BME280;34064;44.942;0.008;2022-12-16T08:22:40;98017.69;;;6.56;62.87
47280;BME280;34064;44.942;0.008;2022-12-16T08:25:24;98021.59;;;6.64;62.29
47280;BME280;34064;44.942;0.008;2022-12-16T08:28:09;98030.69;;;6.60;61.96
47280;BME280;34064;44.942;0.008;2022-12-16T08:30:54;98033.53;;;6.56;61.83
47280;BME280;34064;44.942;0.008;2022-12-16T08:33:39;98042.41;;;6.55;62.14
47280;BME280;34064;44.942;0.008;2022-12-16T08:36:24;98037.84;;;6.58;61.90
47280;BME280;34064;44.942;0.008;2022-12-16T08:39:09;98035.47;;;6.54;60.97
47280;BME280;34064;44.942;0.008;2022-12-16T08:41:53;98057.22;;;6.45;61.08
47280;BME280;34064;44.942;0.008;2022-12-16T08:44:39;98062.50;;;6.45;61.55
47280;BME280;34064;44.942;0.008;2022-12-16T08:47:24;98068.50;;;6.47;61.49
47280;BME280;34064;44.942;0.008;2022-12-16T08:50:09;98070.91;;;6.50;61.70
47280;BME280;34064;44.942;0.008;2022-12-16T08:52:54;98072.41;;;6.54;61.19
47280;BME280;34064;44.942;0.008;2022-12-16T08:55:38;98074.72;;;6.59;61.46
47280;BME280;34064;44.942;0.008;2022-12-16T08:58:23;98078.19;;;6.60;61.34
47280;BME280;34064;44.942;0.008;2022-12-16T09:01:08;98076.06;;;6.65;61.72
47280;BME280;34064;44.942;0.008;2022-12-16T09:03:52;98085.69;;;6.66;61.16
47280;BME280;34064;44.942;0.008;2022-12-16T09:06:37;98091.16;;;6.63;60.71
47280;BME280;34064;44.942;0.008;2022-12-16T09:09:22;98099.28;;;6.60;60.91
47280;BME280;34064;44.942;0.008;2022-12-16T09:12:06;98102.78;;;6.60;60.42
47280;BME280;34064;44.942;0.008;2022-12-16T09:14:51;98106.88;;;6.64;60.34
47280;BME280;34064;44.942;0.008;2022-12-16T09:17:36;98110.38;;;6.65;60.13
47280;BME280;34064;44.942;0.008;2022-12-16T09:20:20;98113.97;;;6.64;59.95
47280;BME280;34064;44.942;0.008;2022-12-16T09:23:05;98118.38;;;6.63;60.39
47280;BME280;34064;44.942;0.008;2022-12-16T09:25:50;98112.78;;;6.68;60.30
47280;BME280;34064;44.942;0.008;2022-12-16T09:28:34;98135.81;;;6.66;60.51
47280;BME280;34064;44.942;0.008;2022-12-16T09:31:19;98130.94;;;6.72;59.94
47280;BME280;34064;44.942;0.008;2022-12-16T09:34:04;98126.06;;;6.79;60.07
47280;BME280;34064;44.942;0.008;2022-12-16T09:36:48;98121.94;;;6.88;59.60
47280;BME280;34064;44.942;0.008;2022-12-16T09:39:33;98126.97;;;6.91;59.64
47280;BME280;34064;44.942;0.008;2022-12-16T09:42:21;98123.03;;;6.97;59.60
47280;BME280;34064;44.942;0.008;2022-12-16T09:48:32;98125.19;;;7.16;59.79
47280;BME280;34064;44.942;0.008;2022-12-16T09:51:22;98117.41;;;7.26;59.12
47280;BME280;34064;44.942;0.008;2022-12-16T09:54:12;98116.00;;;7.33;58.69
47280;BME280;34064;44.942;0.008;2022-12-16T09:57:00;98113.25;;;7.34;58.81
47280;BME280;34064;44.942;0.008;2022-12-16T09:59:58;98123.16;;;7.44;58.14
47280;BME280;34064;44.942;0.008;2022-12-16T10:02:47;98129.50;;;7.41;58.40
47280;BME280;34064;44.942;0.008;2022-12-16T10:14:58;98134.47;;;7.57;58.39
47280;BME280;34064;44.942;0.008;2022-12-16T10:17:45;98130.53;;;7.63;57.93
47280;BME280;34064;44.942;0.008;2022-12-16T10:26:42;98141.22;;;7.61;58.25
47280;BME280;34064;44.942;0.008;2022-12-16T10:29:34;98146.16;;;7.66;58.44
47280;BME280;34064;44.942;0.008;2022-12-16T10:32:49;98150.25;;;7.70;58.29
47280;BME280;34064;44.942;0.008;2022-12-16T10:35:50;98153.19;;;7.78;58.26
47280;BME280;34064;44.942;0.008;2022-12-16T10:38:40;98151.16;;;7.82;58.45
47280;BME280;34064;44.942;0.008;2022-12-16T10:41:33;98145.50;;;7.87;58.15
47280;BME280;34064;44.942;0.008;2022-12-16T10:44:21;98141.66;;;7.91;58.35
47280;BME280;34064;44.942;0.008;2022-12-16T10:47:07;98141.44;;;7.94;58.36
47280;BME280;34064;44.942;0.008;2022-12-16T10:49:54;98144.09;;;8.05;57.54
47280;BME280;34064;44.942;0.008;2022-12-16T10:52:56;98127.75;;;8.11;57.93
47280;BME280;34064;44.942;0.008;2022-12-16T10:55:53;98121.88;;;8.19;57.91
47280;BME280;34064;44.942;0.008;2022-12-16T10:58:53;98121.25;;;8.27;57.88
47280;BME280;34064;44.942;0.008;2022-12-16T11:01:39;98098.91;;;8.42;57.47
47280;BME280;34064;44.942;0.008;2022-12-16T11:07:33;98083.75;;;8.56;56.87
47280;BME280;34064;44.942;0.008;2022-12-16T11:10:26;98088.81;;;8.59;56.35
47280;BME280;34064;44.942;0.008;2022-12-16T11:13:18;98105.06;;;8.66;56.79
47280;BME280;34064;44.942;0.008;2022-12-16T11:19:04;98108.16;;;8.82;56.63
47280;BME280;34064;44.942;0.008;2022-12-16T11:21:49;98100.56;;;8.89;56.56
47280;BME280;34064;44.942;0.008;2022-12-16T11:24:34;98100.41;;;9.02;54.63
47280;BME280;34064;44.942;0.008;2022-12-16T11:27:26;98110.47;;;9.08;54.92
47280;BME280;34064;44.942;0.008;2022-12-16T11:30:21;98112.44;;;9.06;55.41
47280;BME280;34064;44.942;0.008;2022-12-16T11:33:13;98107.22;;;9.16;54.90
47280;BME280;34064;44.942;0.008;2022-12-16T11:36:12;98108.75;;;9.18;55.48
47280;BME280;34064;44.942;0.008;2022-12-16T11:38:58;98112.00;;;9.22;55.70
47280;BME280;34064;44.942;0.008;2022-12-16T11:41:47;98112.00;;;9.22;55.32
47280;BME280;34064;44.942;0.008;2022-12-16T11:44:56;98116.53;;;9.31;55.31
47280;BME280;34064;44.942;0.008;2022-12-16T11:47:41;98109.91;;;9.37;54.93
47280;BME280;34064;44.942;0.008;2022-12-16T11:50:28;98109.13;;;9.46;55.23
47280;BME280;34064;44.942;0.008;2022-12-16T11:53:24;98103.78;;;9.58;54.89
47280;BME280;34064;44.942;0.008;2022-12-16T11:56:22;98103.41;;;9.62;54.90
47280;BME280;34064;44.942;0.008;2022-12-16T11:59:41;98104.44;;;9.71;55.41
47280;BME280;34064;44.942;0.008;2022-12-16T12:02:36;98107.69;;;9.75;55.37
47280;BME280;34064;44.942;0.008;2022-12-16T12:05:34;98105.06;;;9.84;54.16
47280;BME280;34064;44.942;0.008;2022-12-16T12:20:46;98108.81;;;10.03;53.25
47280;BME280;34064;44.942;0.008;2022-12-16T12:23:56;98115.31;;;10.10;53.33
47280;BME280;34064;44.942;0.008;2022-12-16T12:32:51;98112.97;;;10.38;53.27
47280;BME280;34064;44.942;0.008;2022-12-16T12:36:08;98115.88;;;10.45;52.23
47280;BME280;34064;44.942;0.008;2022-12-16T12:45:05;98109.66;;;10.56;51.18
47280;BME280;34064;44.942;0.008;2022-12-16T12:48:23;98096.09;;;10.59;51.53
47280;BME280;34064;44.942;0.008;2022-12-16T12:51:25;98101.28;;;10.60;49.95
47280;BME280;34064;44.942;0.008;2022-12-16T12:57:38;98098.91;;;10.57;50.41
47280;BME280;34064;44.942;0.008;2022-12-16T13:00:25;98102.00;;;10.63;50.74
47280;BME280;34064;44.942;0.008;2022-12-16T13:03:28;98099.38;;;10.72;50.49
47280;BME280;34064;44.942;0.008;2022-12-16T13:06:16;98099.53;;;10.81;51.13
47280;BME280;34064;44.942;0.008;2022-12-16T13:09:02;98101.75;;;10.85;50.45
47280;BME280;34064;44.942;0.008;2022-12-16T13:20:54;98103.75;;;11.03;50.01
47280;BME280;34064;44.942;0.008;2022-12-16T13:23:42;98105.28;;;11.05;48.69
47280;BME280;34064;44.942;0.008;2022-12-16T13:26:32;98098.31;;;11.04;49.25
47280;BME280;34064;44.942;0.008;2022-12-16T13:29:24;98104.03;;;11.10;49.32
47280;BME280;34064;44.942;0.008;2022-12-16T13:41:03;98111.59;;;11.14;49.00
47280;BME280;34064;44.942;0.008;2022-12-16T13:43:53;98108.94;;;11.14;48.73
47280;BME280;34064;44.942;0.008;2022-12-16T13:46:57;98125.88;;;11.13;49.08
47280;BME280;34064;44.942;0.008;2022-12-16T13:49:48;98115.28;;;11.23;49.25
47280;BME280;34064;44.942;0.008;2022-12-16T13:58:18;98118.06;;;11.41;48.61
47280;BME280;34064;44.942;0.008;2022-12-16T14:01:10;98129.00;;;11.38;47.99
47280;BME280;34064;44.942;0.008;2022-12-16T14:03:57;98130.94;;;11.36;47.87
47280;BME280;34064;44.942;0.008;2022-12-16T14:06:43;98118.91;;;11.42;49.05
47280;BME280;34064;44.942;0.008;2022-12-16T14:09:33;98127.84;;;11.50;48.51
47280;BME280;34064;44.942;0.008;2022-12-16T14:21:31;98140.16;;;11.81;48.69
47280;BME280;34064;44.942;0.008;2022-12-16T14:24:26;98150.13;;;11.79;47.48
47280;BME280;34064;44.942;0.008;2022-12-16T14:27:15;98154.72;;;11.67;47.95
47280;BME280;34064;44.942;0.008;2022-12-16T14:30:03;98154.16;;;11.63;47.42
47280;BME280;34064;44.942;0.008;2022-12-16T14:32:57;98164.81;;;11.53;47.83
47280;BME280;34064;44.942;0.008;2022-12-16T14:35:48;98176.28;;;11.44;47.19
47280;BME280;34064;44.942;0.008;2022-12-16T14:38:35;98181.72;;;11.33;46.94
47280;BME280;34064;44.942;0.008;2022-12-16T14:41:22;98192.78;;;11.18;46.82
47280;BME280;34064;44.942;0.008;2022-12-16T14:44:22;98190.94;;;11.09;47.01
47280;BME280;34064;44.942;0.008;2022-12-16T14:47:26;98206.28;;;10.96;47.82
47280;BME280;34064;44.942;0.008;2022-12-16T14:50:28;98219.56;;;10.96;46.83
47280;BME280;34064;44.942;0.008;2022-12-16T14:53:20;98226.06;;;10.82;47.17
47280;BME280;34064;44.942;0.008;2022-12-16T14:56:21;98223.56;;;10.80;46.89
47280;BME280;34064;44.942;0.008;2022-12-16T14:59:13;98229.53;;;10.72;46.83
47280;BME280;34064;44.942;0.008;2022-12-16T15:05:27;98241.59;;;10.55;47.61
47280;BME280;34064;44.942;0.008;2022-12-16T15:08:14;98250.91;;;10.50;47.82
47280;BME280;34064;44.942;0.008;2022-12-16T15:11:00;98255.66;;;10.46;47.73
47280;BME280;34064;44.942;0.008;2022-12-16T15:13:55;98263.50;;;10.48;47.26
47280;BME280;34064;44.942;0.008;2022-12-16T15:16:47;98275.97;;;10.36;47.85
47280;BME280;34064;44.942;0.008;2022-12-16T15:19:45;98281.53;;;10.33;47.71
47280;BME280;34064;44.942;0.008;2022-12-16T15:22:32;98285.41;;;10.28;47.74
47280;BME280;34064;44.942;0.008;2022-12-16T15:25:23;98297.28;;;10.24;48.18
47280;BME280;34064;44.942;0.008;2022-12-16T15:28:47;98307.19;;;10.22;48.04
47280;BME280;34064;44.942;0.008;2022-12-16T15:31:37;98309.06;;;10.32;47.79
47280;BME280;34064;44.942;0.008;2022-12-16T15:37:34;98291.22;;;10.55;46.88
47280;BME280;34064;44.942;0.008;2022-12-16T15:40:28;98293.25;;;10.63;46.81
47280;BME280;34064;44.942;0.008;2022-12-16T15:43:27;98299.03;;;10.77;47.01
47280;BME280;34064;44.942;0.008;2022-12-16T15:46:17;98272.88;;;11.45;45.54
47280;BME280;34064;44.942;0.008;2022-12-16T15:49:02;98267.47;;;11.85;45.21
47280;BME280;34064;44.942;0.008;2022-12-16T15:51:49;98259.53;;;12.15;44.11
47280;BME280;34064;44.942;0.008;2022-12-16T15:54:52;98246.72;;;12.58;43.14
47280;BME280;34064;44.942;0.008;2022-12-16T15:57:38;98266.66;;;12.34;44.10
47280;BME280;34064;44.942;0.008;2022-12-16T16:00:26;98300.13;;;11.88;43.07
47280;BME280;34064;44.942;0.008;2022-12-16T16:06:18;98370.72;;;10.68;45.39
47280;BME280;34064;44.942;0.008;2022-12-16T16:09:20;98391.75;;;10.27;46.46
47280;BME280;34064;44.942;0.008;2022-12-16T16:12:08;98408.94;;;10.00;47.17
47280;BME280;34064;44.942;0.008;2022-12-16T16:14:53;98422.09;;;9.79;47.82
47280;BME280;34064;44.942;0.008;2022-12-16T16:17:37;98430.56;;;9.61;48.45
47280;BME280;34064;44.942;0.008;2022-12-16T16:20:22;98441.16;;;9.50;49.08
47280;BME280;34064;44.942;0.008;2022-12-16T16:23:08;98446.69;;;9.35;49.14
47280;BME280;34064;44.942;0.008;2022-12-16T16:25:54;98457.28;;;9.24;49.72
47280;BME280;34064;44.942;0.008;2022-12-16T16:28:55;98468.69;;;9.13;50.23
47280;BME280;34064;44.942;0.008;2022-12-16T16:31:40;98474.78;;;9.02;50.86